Time;durP1;ratioP1;P1;durP2;ratioP2;P2;SDS_P1;SDS_P2;PMS_P1;PMS_P2;Temp;Humidity;BMP_temperature;BMP_pressure;BME280_temperature;BME280_humidity;BME280_pressure;Samples;Min_cycle;Max_cycle;Signal;HPM_P1;HPM_P2
2022/05/21 00:01:58;;;;;;;7.50;4.40;;;;;;;;;;761840;184;919049;-68
2022/05/21 00:04:24;;;;;;;9.27;4.90;;;;;;;;;;761553;184;919268;-68
2022/05/21 00:06:50;;;;;;;7.13;4.10;;;;;;;;;;763075;184;919553;-68
2022/05/21 00:09:18;;;;;;;7.23;4.23;;;;;;;;;;748270;185;922194;-68
2022/05/21 00:11:41;;;;;;;8.10;4.20;;;;;;;;;;748835;185;918935;-68
2022/05/21 00:14:08;;;;;;;6.70;5.00;;;;;;;;;;754911;185;919757;-69
2022/05/21 00:16:33;;;;;;;9.73;5.10;;;;;;;;;;752762;185;918432;-69
2022/05/21 00:18:59;;;;;;;10.63;4.70;;;;;;;;;;760339;183;1004749;-69
2022/05/21 00:21:25;;;;;;;8.20;4.50;;;;;;;;;;766726;181;914998;-69
2022/05/21 00:23:51;;;;;;;5.43;3.70;;;;;;;;;;761970;183;917723;-68
2022/05/21 00:26:16;;;;;;;7.57;4.80;;;;;;;;;;761318;183;916864;-68
2022/05/21 00:28:42;;;;;;;8.30;4.60;;;;;;;;;;758586;184;919897;-69
2022/05/21 00:31:08;;;;;;;13.20;7.00;;;;;;;;;;758902;184;1017991;-69
2022/05/21 00:33:34;;;;;;;14.17;6.20;;;;;;;;;;759154;183;915070;-68
2022/05/21 00:36:00;;;;;;;8.98;5.68;;;;;;;;;;760634;183;918694;-69
2022/05/21 00:38:26;;;;;;;7.77;6.00;;;;;;;;;;766573;183;919112;-68
2022/05/21 00:40:51;;;;;;;8.10;5.77;;;;;;;;;;762626;183;918785;-68
2022/05/21 00:43:23;;;;;;;6.93;5.90;;;;;;;;;;755434;183;932213;-69
2022/05/21 00:45:49;;;;;;;7.43;5.77;;;;;;;;;;760479;182;919060;-68
2022/05/21 00:48:15;;;;;;;9.63;6.53;;;;;;;;;;756023;185;919530;-68
2022/05/21 00:50:41;;;;;;;11.10;7.20;;;;;;;;;;749227;185;918952;-68
2022/05/21 00:53:06;;;;;;;12.90;6.97;;;;;;;;;;756438;183;919552;-68
2022/05/21 00:55:32;;;;;;;7.60;6.40;;;;;;;;;;767537;183;919356;-68
2022/05/21 01:00:31;;;;;;;8.65;6.28;;;;;;;;;;753603;184;919160;-69
2022/05/21 01:02:56;;;;;;;8.50;6.57;;;;;;;;;;759418;183;919294;-68
2022/05/21 01:05:22;;;;;;;12.53;6.50;;;;;;;;;;751486;183;919197;-68
2022/05/21 01:07:48;;;;;;;11.00;7.43;;;;;;;;;;742004;187;935956;-69
2022/05/21 01:10:14;;;;;;;12.43;6.80;;;;;;;;;;747290;187;919338;-68
2022/05/21 01:12:40;;;;;;;10.57;6.30;;;;;;;;;;750533;187;919284;-68
2022/05/21 01:15:07;;;;;;;10.27;6.43;;;;;;;;;;742025;188;919264;-69
2022/05/21 01:17:32;;;;;;;6.47;5.70;;;;;;;;;;739280;188;924941;-68
2022/05/21 01:20:00;;;;;;;9.10;5.97;;;;;;;;;;741559;189;919487;-68
2022/05/21 01:22:25;;;;;;;7.93;6.10;;;;;;;;;;741627;187;918504;-68
2022/05/21 01:24:51;;;;;;;8.97;6.50;;;;;;;;;;748826;187;919034;-68
2022/05/21 01:27:17;;;;;;;7.20;5.40;;;;;;;;;;746839;187;919234;-68
2022/05/21 01:29:43;;;;;;;6.55;5.85;;;;;;;;;;743434;188;918243;-68
2022/05/21 01:32:09;;;;;;;11.67;6.70;;;;;;;;;;743421;187;919615;-68
2022/05/21 01:34:34;;;;;;;7.60;5.03;;;;;;;;;;735235;190;919833;-68
2022/05/21 01:37:00;;;;;;;7.63;5.80;;;;;;;;;;742291;190;918304;-68
2022/05/21 01:39:26;;;;;;;6.40;5.57;;;;;;;;;;745638;187;920371;-68
2022/05/21 01:41:52;;;;;;;6.17;5.57;;;;;;;;;;746060;187;917601;-68
2022/05/21 01:46:50;;;;;;;6.90;5.50;;;;;;;;;;751540;187;913193;-68
2022/05/21 01:49:15;;;;;;;7.70;6.13;;;;;;;;;;752282;185;915709;-68
2022/05/21 01:51:41;;;;;;;7.18;5.40;;;;;;;;;;751054;184;1021116;-68
2022/05/21 01:54:07;;;;;;;13.13;5.73;;;;;;;;;;765733;183;918921;-69
2022/05/21 01:56:33;;;;;;;6.83;5.47;;;;;;;;;;760143;184;919549;-68
2022/05/21 01:58:59;;;;;;;6.70;4.70;;;;;;;;;;748248;187;919560;-68
2022/05/21 02:01:25;;;;;;;7.23;4.67;;;;;;;;;;751518;188;918286;-67
2022/05/21 02:03:52;;;;;;;8.70;5.10;;;;;;;;;;757177;184;919477;-68
2022/05/21 02:06:18;;;;;;;10.07;4.50;;;;;;;;;;752406;185;919301;-67
2022/05/21 02:08:44;;;;;;;8.93;5.27;;;;;;;;;;761953;184;919715;-68
2022/05/21 02:11:10;;;;;;;8.83;5.33;;;;;;;;;;757550;184;918922;-68
2022/05/21 02:13:36;;;;;;;10.33;4.90;;;;;;;;;;752911;184;1019263;-68
2022/05/21 02:16:02;;;;;;;9.40;5.47;;;;;;;;;;751963;185;919612;-68
2022/05/21 02:18:27;;;;;;;11.70;5.23;;;;;;;;;;763038;183;1021619;-68
2022/05/21 02:20:54;;;;;;;9.13;4.60;;;;;;;;;;754340;183;1739523;-67
2022/05/21 02:23:19;;;;;;;6.53;4.90;;;;;;;;;;759538;183;919621;-67
2022/05/21 02:25:45;;;;;;;11.93;4.60;;;;;;;;;;765626;183;919230;-68
2022/05/21 02:28:12;;;;;;;9.93;5.30;;;;;;;;;;761672;183;920136;-68
2022/05/21 02:30:37;;;;;;;6.70;5.20;;;;;;;;;;760351;183;938434;-70
2022/05/21 02:33:03;;;;;;;8.97;5.83;;;;;;;;;;766623;183;919259;-67
2022/05/21 02:35:29;;;;;;;9.30;5.50;;;;;;;;;;760800;184;1021397;-67
2022/05/21 02:40:26;;;;;;;11.45;6.10;;;;;;;;;;757726;184;919306;-68
2022/05/21 02:42:54;;;;;;;7.27;5.60;;;;;;;;;;760590;184;919387;-67
2022/05/21 02:45:18;;;;;;;10.67;6.33;;;;;;;;;;759350;183;919508;-67
2022/05/21 02:47:43;;;;;;;7.93;5.23;;;;;;;;;;762702;183;918632;-67
2022/05/21 02:50:09;;;;;;;7.23;4.80;;;;;;;;;;764037;184;918450;-68
2022/05/21 02:52:36;;;;;;;8.63;5.83;;;;;;;;;;759632;183;918750;-68
2022/05/21 02:55:01;;;;;;;7.53;5.67;;;;;;;;;;759200;183;918516;-67
2022/05/21 02:57:27;;;;;;;9.37;6.47;;;;;;;;;;748894;183;1847799;-67
2022/05/21 02:59:53;;;;;;;5.60;4.97;;;;;;;;;;749931;183;916247;-67
2022/05/21 03:02:19;;;;;;;12.00;5.90;;;;;;;;;;742475;187;917258;-68
2022/05/21 03:04:45;;;;;;;8.67;5.87;;;;;;;;;;758269;183;916730;-67
2022/05/21 03:07:11;;;;;;;12.67;6.30;;;;;;;;;;764356;183;916101;-68
2022/05/21 03:12:09;;;;;;;12.20;7.03;;;;;;;;;;759658;183;919313;-68
2022/05/21 03:14:35;;;;;;;11.10;6.27;;;;;;;;;;758247;183;919571;-68
2022/05/21 03:17:01;;;;;;;11.10;6.17;;;;;;;;;;757606;184;919239;-68
2022/05/21 03:19:26;;;;;;;11.77;6.10;;;;;;;;;;754665;183;919558;-68
2022/05/21 03:21:52;;;;;;;12.37;5.05;;;;;;;;;;757075;183;968520;-68
2022/05/21 03:24:18;;;;;;;9.83;6.37;;;;;;;;;;764189;183;918289;-68
2022/05/21 03:26:45;;;;;;;12.03;6.03;;;;;;;;;;753373;184;919121;-68
2022/05/21 03:29:10;;;;;;;12.80;7.27;;;;;;;;;;758316;183;924947;-68
2022/05/21 03:31:36;;;;;;;10.80;6.10;;;;;;;;;;763550;183;919074;-68
2022/05/21 03:34:01;;;;;;;11.10;5.73;;;;;;;;;;761014;183;919100;-67
2022/05/21 03:36:27;;;;;;;10.00;6.60;;;;;;;;;;758276;184;919363;-68
2022/05/21 03:38:55;;;;;;;15.63;6.18;;;;;;;;;;761130;184;918995;-68
2022/05/21 03:41:20;;;;;;;8.23;6.67;;;;;;;;;;758840;183;913559;-67
2022/05/21 03:43:45;;;;;;;8.97;6.23;;;;;;;;;;759544;183;918927;-68
2022/05/21 03:46:11;;;;;;;12.50;7.03;;;;;;;;;;753549;183;919501;-69
2022/05/21 03:48:37;;;;;;;13.80;6.07;;;;;;;;;;765064;184;918928;-68
2022/05/21 03:51:03;;;;;;;9.10;6.30;;;;;;;;;;756852;183;919270;-68
2022/05/21 03:53:29;;;;;;;15.83;6.97;;;;;;;;;;757411;183;918687;-69
2022/05/21 03:55:55;;;;;;;9.03;6.17;;;;;;;;;;758686;184;919139;-67
2022/05/21 03:58:21;;;;;;;11.33;6.07;;;;;;;;;;757760;183;919396;-68
2022/05/21 04:00:46;;;;;;;11.73;6.80;;;;;;;;;;765830;183;918320;-68
2022/05/21 04:03:12;;;;;;;11.50;7.10;;;;;;;;;;755798;183;939896;-67
2022/05/21 04:05:38;;;;;;;7.37;6.50;;;;;;;;;;758268;184;1009269;-68
2022/05/21 04:08:04;;;;;;;10.90;7.37;;;;;;;;;;760687;183;919094;-67
2022/05/21 04:10:30;;;;;;;11.20;6.90;;;;;;;;;;761949;183;919976;-67
2022/05/21 04:12:56;;;;;;;9.07;6.80;;;;;;;;;;764489;184;919262;-68
2022/05/21 04:15:22;;;;;;;8.50;6.53;;;;;;;;;;753850;185;918581;-68
2022/05/21 04:17:47;;;;;;;10.93;6.47;;;;;;;;;;752635;184;919298;-67
2022/05/21 04:20:13;;;;;;;7.47;6.17;;;;;;;;;;767776;183;918920;-68
2022/05/21 04:22:39;;;;;;;9.27;6.50;;;;;;;;;;755933;183;919199;-68
2022/05/21 04:25:06;;;;;;;10.40;6.07;;;;;;;;;;748016;184;943997;-68
2022/05/21 04:27:31;;;;;;;14.23;6.73;;;;;;;;;;757771;184;919884;-67
2022/05/21 04:29:57;;;;;;;8.80;6.47;;;;;;;;;;760015;183;921247;-68
2022/05/21 04:32:23;;;;;;;13.13;6.17;;;;;;;;;;759551;183;918667;-67
2022/05/21 04:34:49;;;;;;;11.73;6.18;;;;;;;;;;756144;183;918983;-68
2022/05/21 04:37:14;;;;;;;8.73;6.50;;;;;;;;;;759188;183;920822;-68
2022/05/21 04:39:40;;;;;;;9.23;6.70;;;;;;;;;;755121;183;919354;-67
2022/05/21 04:42:06;;;;;;;13.90;6.53;;;;;;;;;;758307;183;920278;-67
2022/05/21 04:44:34;;;;;;;12.77;6.77;;;;;;;;;;762275;183;917740;-69
2022/05/21 04:46:58;;;;;;;10.30;5.90;;;;;;;;;;759141;184;926330;-68
2022/05/21 04:49:24;;;;;;;8.10;6.00;;;;;;;;;;757628;183;921904;-68
2022/05/21 04:51:49;;;;;;;9.10;6.30;;;;;;;;;;759915;186;915748;-69
2022/05/21 04:54:15;;;;;;;17.53;6.47;;;;;;;;;;752385;184;919338;-70
2022/05/21 04:56:41;;;;;;;10.23;6.93;;;;;;;;;;756122;183;917787;-69
2022/05/21 04:59:07;;;;;;;12.00;8.23;;;;;;;;;;760136;183;911834;-69
2022/05/21 05:01:33;;;;;;;16.83;6.87;;;;;;;;;;760871;183;910159;-71
2022/05/21 05:03:59;;;;;;;10.27;5.17;;;;;;;;;;755809;183;934997;-69
2022/05/21 05:06:25;;;;;;;9.07;6.10;;;;;;;;;;755192;183;1012682;-69
2022/05/21 05:08:52;;;;;;;12.43;6.63;;;;;;;;;;764749;181;909437;-72
2022/05/21 05:11:18;;;;;;;9.97;6.57;;;;;;;;;;759071;182;912635;-70
2022/05/21 05:13:43;;;;;;;10.10;7.40;;;;;;;;;;761170;183;907068;-71
2022/05/21 05:16:09;;;;;;;12.20;7.13;;;;;;;;;;767250;183;816973;-70
2022/05/21 05:18:35;;;;;;;9.80;7.63;;;;;;;;;;766273;183;684235;-70
2022/05/21 05:21:01;;;;;;;13.93;7.47;;;;;;;;;;750722;186;630220;-70
2022/05/21 05:23:27;;;;;;;11.48;6.75;;;;;;;;;;761800;183;631304;-71
2022/05/21 05:25:53;;;;;;;10.93;6.87;;;;;;;;;;754323;185;629824;-71
2022/05/21 05:28:19;;;;;;;19.00;7.67;;;;;;;;;;742935;188;643208;-72
2022/05/21 05:30:46;;;;;;;10.13;6.63;;;;;;;;;;765330;183;626479;-73
2022/05/21 05:33:11;;;;;;;8.33;6.30;;;;;;;;;;765960;184;615188;-72
2022/05/21 05:35:37;;;;;;;15.87;6.93;;;;;;;;;;763744;183;670142;-71
2022/05/21 05:38:03;;;;;;;10.80;5.67;;;;;;;;;;761442;183;632847;-73
2022/05/21 05:40:30;;;;;;;10.10;6.17;;;;;;;;;;765363;184;633832;-71
2022/05/21 05:42:55;;;;;;;10.33;5.47;;;;;;;;;;761406;183;619211;-70
2022/05/21 05:45:21;;;;;;;8.37;5.57;;;;;;;;;;761493;184;619018;-70
2022/05/21 05:47:47;;;;;;;9.57;6.10;;;;;;;;;;764035;183;634359;-70
2022/05/21 05:50:12;;;;;;;7.10;5.80;;;;;;;;;;759619;184;623898;-70
2022/05/21 05:52:38;;;;;;;6.93;5.37;;;;;;;;;;761218;183;675162;-69
2022/05/21 05:55:04;;;;;;;9.13;6.00;;;;;;;;;;759906;183;691550;-71
2022/05/21 05:57:30;;;;;;;8.20;6.00;;;;;;;;;;762127;183;830870;-69
2022/05/21 05:59:56;;;;;;;7.77;6.27;;;;;;;;;;762880;183;620544;-70
2022/05/21 06:04:55;;;;;;;13.43;6.93;;;;;;;;;;770260;183;623003;-70
2022/05/21 06:07:20;;;;;;;11.63;6.27;;;;;;;;;;757814;183;919343;-72
2022/05/21 06:09:46;;;;;;;10.70;6.40;;;;;;;;;;761250;183;633913;-70
2022/05/21 06:12:12;;;;;;;8.73;6.83;;;;;;;;;;761480;183;631644;-69
2022/05/21 06:14:37;;;;;;;8.20;6.20;;;;;;;;;;764113;183;631093;-70
2022/05/21 06:17:03;;;;;;;8.03;5.50;;;;;;;;;;759265;184;664583;-70
2022/05/21 06:19:29;;;;;;;13.07;6.07;;;;;;;;;;761993;183;639303;-72
2022/05/21 06:21:57;;;;;;;7.27;5.40;;;;;;;;;;767997;183;622792;-72
2022/05/21 06:24:23;;;;;;;14.43;6.87;;;;;;;;;;764124;183;627434;-71
2022/05/21 06:26:49;;;;;;;7.53;4.00;;;;;;;;;;765473;183;634995;-70
2022/05/21 06:29:16;;;;;;;9.63;5.23;;;;;;;;;;755955;183;918980;-69
2022/05/21 06:31:41;;;;;;;9.53;5.70;;;;;;;;;;763132;183;630296;-71
2022/05/21 06:34:06;;;;;;;6.70;4.63;;;;;;;;;;762133;183;629396;-71
2022/05/21 06:36:32;;;;;;;6.30;4.63;;;;;;;;;;760282;183;914696;-71
2022/05/21 06:38:58;;;;;;;8.27;4.50;;;;;;;;;;767381;183;626374;-70
2022/05/21 06:41:26;;;;;;;8.90;5.00;;;;;;;;;;765348;183;914131;-70
2022/05/21 06:43:50;;;;;;;10.17;5.00;;;;;;;;;;760322;183;630417;-70
2022/05/21 06:46:16;;;;;;;8.67;3.70;;;;;;;;;;765475;183;625526;-73
2022/05/21 06:48:41;;;;;;;6.60;3.37;;;;;;;;;;762020;183;641187;-71
2022/05/21 06:51:07;;;;;;;11.53;3.80;;;;;;;;;;760480;183;629580;-70
2022/05/21 06:53:33;;;;;;;5.13;3.87;;;;;;;;;;763424;184;620114;-72
2022/05/21 06:55:59;;;;;;;5.43;3.77;;;;;;;;;;760834;183;613884;-72
2022/05/21 06:58:25;;;;;;;4.47;3.57;;;;;;;;;;760543;184;918379;-70
2022/05/21 07:00:51;;;;;;;4.73;3.20;;;;;;;;;;759940;183;629036;-70
2022/05/21 07:03:16;;;;;;;6.47;3.53;;;;;;;;;;764370;183;919706;-72
2022/05/21 07:08:26;;;;;;;4.40;2.80;;;;;;;;;;760418;183;628040;-70
2022/05/21 07:10:52;;;;;;;5.40;3.13;;;;;;;;;;765163;183;697100;-69
2022/05/21 07:13:18;;;;;;;4.80;3.23;;;;;;;;;;768164;183;919647;-70
2022/05/21 07:15:44;;;;;;;6.40;3.07;;;;;;;;;;763799;183;918820;-69
2022/05/21 07:18:12;;;;;;;6.00;3.33;;;;;;;;;;756186;183;1013775;-71
2022/05/21 07:20:37;;;;;;;4.70;3.17;;;;;;;;;;763524;184;890733;-69
2022/05/21 07:23:03;;;;;;;5.93;3.13;;;;;;;;;;769170;183;619130;-70
2022/05/21 07:25:30;;;;;;;4.30;3.40;;;;;;;;;;760378;185;638981;-70
2022/05/21 07:27:56;;;;;;;6.27;3.60;;;;;;;;;;758316;183;618850;-68
2022/05/21 07:30:23;;;;;;;5.50;3.30;;;;;;;;;;763067;181;639501;-70
2022/05/21 07:32:51;;;;;;;5.57;3.47;;;;;;;;;;762212;183;919633;-69
2022/05/21 07:35:15;;;;;;;4.20;3.22;;;;;;;;;;756938;183;918203;-72
2022/05/21 07:37:41;;;;;;;6.07;2.97;;;;;;;;;;766185;183;626975;-74
2022/05/21 07:40:07;;;;;;;6.03;3.33;;;;;;;;;;760435;183;627975;-69
2022/05/21 07:42:33;;;;;;;8.13;2.90;;;;;;;;;;766818;183;1020452;-71
2022/05/21 07:44:59;;;;;;;7.23;2.80;;;;;;;;;;754597;186;624829;-71
2022/05/21 07:47:25;;;;;;;6.30;3.20;;;;;;;;;;768321;181;919271;-68
2022/05/21 07:49:52;;;;;;;5.43;3.03;;;;;;;;;;762260;182;743118;-69
2022/05/21 07:52:17;;;;;;;5.63;3.33;;;;;;;;;;764046;183;639307;-70
2022/05/21 07:54:43;;;;;;;4.27;2.83;;;;;;;;;;768061;183;648843;-72
2022/05/21 07:57:09;;;;;;;9.10;3.10;;;;;;;;;;753767;185;700127;-73
2022/05/21 07:59:34;;;;;;;5.73;3.17;;;;;;;;;;760608;185;630702;-71
2022/05/21 08:02:00;;;;;;;4.53;4.10;;;;;;;;;;760274;184;1020195;-71
2022/05/21 08:04:26;;;;;;;6.43;2.97;;;;;;;;;;761744;183;641467;-69
2022/05/21 08:06:52;;;;;;;3.30;2.40;;;;;;;;;;763456;183;925092;-73
2022/05/21 08:09:19;;;;;;;8.87;3.70;;;;;;;;;;752538;185;919156;-75
2022/05/21 08:11:46;;;;;;;3.70;2.60;;;;;;;;;;759824;183;638276;-74
2022/05/21 08:14:11;;;;;;;15.33;5.37;;;;;;;;;;757324;184;1020852;-73
2022/05/21 08:16:37;;;;;;;5.30;3.03;;;;;;;;;;762572;183;918307;-72
2022/05/21 08:19:04;;;;;;;10.13;2.90;;;;;;;;;;767028;183;616227;-74
2022/05/21 08:21:29;;;;;;;4.97;2.90;;;;;;;;;;757456;186;617532;-72
2022/05/21 08:31:52;;;;;;;11.50;2.80;;;;;;;;;;718145;175;626539;-72
2022/05/21 08:34:18;;;;;;;8.03;3.00;;;;;;;;;;768029;182;619758;-74
2022/05/21 08:36:43;;;;;;;5.17;2.50;;;;;;;;;;769132;178;730716;-70
2022/05/21 08:39:09;;;;;;;5.37;3.10;;;;;;;;;;767824;177;920200;-73
2022/05/21 08:41:35;;;;;;;3.20;2.13;;;;;;;;;;768923;179;919795;-76
2022/05/21 08:44:03;;;;;;;7.70;2.60;;;;;;;;;;774518;177;632227;-74
2022/05/21 08:46:31;;;;;;;5.95;2.70;;;;;;;;;;766051;181;918723;-74
2022/05/21 08:49:00;;;;;;;4.90;2.60;;;;;;;;;;773069;180;918228;-72
2022/05/21 08:51:26;;;;;;;4.13;2.20;;;;;;;;;;774453;181;1010376;-73
2022/05/21 08:53:52;;;;;;;4.07;2.10;;;;;;;;;;769689;179;641103;-72
2022/05/21 08:56:18;;;;;;;4.65;2.28;;;;;;;;;;772093;177;914526;-74
2022/05/21 08:58:46;;;;;;;4.80;2.30;;;;;;;;;;773273;179;915378;-75
2022/05/21 09:01:13;;;;;;;15.33;2.40;;;;;;;;;;770690;178;623617;-75
2022/05/21 09:03:39;;;;;;;67.73;13.63;;;;;;;;;;770042;179;923827;-75
2022/05/21 09:06:05;;;;;;;5.50;3.30;;;;;;;;;;771106;178;618947;-73
2022/05/21 09:08:32;;;;;;;2.70;2.10;;;;;;;;;;772980;180;639257;-72
2022/05/21 09:11:01;;;;;;;6.00;2.07;;;;;;;;;;775646;179;919036;-74
2022/05/21 09:13:29;;;;;;;3.00;2.20;;;;;;;;;;767505;178;816926;-74
2022/05/21 09:18:26;;;;;;;3.13;1.80;;;;;;;;;;776594;177;619070;-73
2022/05/21 09:20:52;;;;;;;3.73;2.60;;;;;;;;;;770687;178;816162;-78
2022/05/21 09:23:18;;;;;;;4.50;2.40;;;;;;;;;;766368;178;1021523;-70
2022/05/21 09:25:44;;;;;;;4.30;1.63;;;;;;;;;;772471;180;815184;-73
2022/05/21 09:28:10;;;;;;;2.77;1.97;;;;;;;;;;765081;177;920014;-73
2022/05/21 09:30:37;;;;;;;4.30;2.30;;;;;;;;;;768703;180;639747;-72
2022/05/21 09:33:03;;;;;;;4.73;2.03;;;;;;;;;;774066;180;615935;-68
2022/05/21 09:35:29;;;;;;;5.23;2.10;;;;;;;;;;768458;177;625950;-74
2022/05/21 09:37:55;;;;;;;7.50;2.50;;;;;;;;;;768237;177;914850;-69
2022/05/21 09:40:30;;;;;;;4.82;2.60;;;;;;;;;;771998;178;919514;-72
2022/05/21 09:45:32;;;;;;;3.80;2.27;;;;;;;;;;773071;178;618862;-72
2022/05/21 09:48:13;;;;;;;6.23;2.40;;;;;;;;;;769167;177;633687;-71
2022/05/21 09:50:46;;;;;;;3.70;1.80;;;;;;;;;;769427;177;656930;-72
2022/05/21 09:53:18;;;;;;;4.83;1.90;;;;;;;;;;770602;180;919722;-71
2022/05/21 09:55:44;;;;;;;3.53;2.10;;;;;;;;;;769057;179;918665;-72
2022/05/21 09:58:09;;;;;;;12.00;3.10;;;;;;;;;;770178;181;618938;-72
2022/05/21 10:00:35;;;;;;;24.83;5.93;;;;;;;;;;773911;180;631317;-69
2022/05/21 10:03:01;;;;;;;28.53;9.93;;;;;;;;;;768893;180;919123;-72
2022/05/21 10:05:27;;;;;;;2.97;2.00;;;;;;;;;;774390;179;620104;-72
2022/05/21 10:12:56;;;;;;;7.53;3.67;;;;;;;;;;775401;180;630826;-70
2022/05/21 10:15:22;;;;;;;6.83;2.77;;;;;;;;;;773973;180;628259;-70
2022/05/21 10:17:48;;;;;;;56.33;9.27;;;;;;;;;;771004;179;706141;-73
2022/05/21 10:20:15;;;;;;;7.30;2.67;;;;;;;;;;769462;179;630735;-72
2022/05/21 10:22:51;;;;;;;4.50;2.67;;;;;;;;;;775882;179;682745;-72
2022/05/21 10:25:18;;;;;;;4.83;2.77;;;;;;;;;;774176;180;633846;-73
2022/05/21 10:27:49;;;;;;;12.07;2.10;;;;;;;;;;770794;179;647527;-72
2022/05/21 10:30:19;;;;;;;3.63;2.20;;;;;;;;;;768046;179;635162;-72
2022/05/21 10:33:01;;;;;;;3.37;2.10;;;;;;;;;;768964;179;633838;-75
2022/05/21 10:35:42;;;;;;;3.20;2.27;;;;;;;;;;775227;180;625171;-73
2022/05/21 10:38:14;;;;;;;6.20;2.90;;;;;;;;;;777325;177;638321;-73
2022/05/21 10:40:45;;;;;;;4.43;2.00;;;;;;;;;;775480;180;621629;-73
2022/05/21 10:43:17;;;;;;;6.33;2.37;;;;;;;;;;774496;180;928758;-74
2022/05/21 10:45:46;;;;;;;8.37;2.87;;;;;;;;;;771899;180;919075;-74
2022/05/21 10:48:13;;;;;;;5.03;2.37;;;;;;;;;;769162;177;714174;-75
2022/05/21 10:50:45;;;;;;;7.37;2.50;;;;;;;;;;769163;181;916854;-75
2022/05/21 10:53:19;;;;;;;9.80;3.03;;;;;;;;;;772671;180;619040;-73
2022/05/21 10:55:55;;;;;;;8.63;3.23;;;;;;;;;;769868;178;630465;-69
2022/05/21 10:58:23;;;;;;;3.07;2.30;;;;;;;;;;773302;177;636315;-75
2022/05/21 11:00:50;;;;;;;178.13;41.47;;;;;;;;;;771575;178;909391;-74
2022/05/21 11:03:18;;;;;;;5.93;2.60;;;;;;;;;;775418;180;917905;-72
2022/05/21 11:05:59;;;;;;;3.10;2.07;;;;;;;;;;786776;179;626052;-72
2022/05/21 11:08:28;;;;;;;6.83;2.80;;;;;;;;;;777061;178;636581;-76
2022/05/21 11:10:59;;;;;;;13.30;4.63;;;;;;;;;;770555;177;632877;-74
2022/05/21 11:13:26;;;;;;;8.13;3.37;;;;;;;;;;772856;178;814177;-74
2022/05/21 11:15:51;;;;;;;11.50;4.10;;;;;;;;;;760115;183;631256;-71
2022/05/21 11:18:32;;;;;;;6.80;2.33;;;;;;;;;;756485;184;615595;-76
2022/05/21 11:21:01;;;;;;;14.17;3.47;;;;;;;;;;778003;177;629732;-76
2022/05/21 11:23:27;;;;;;;3.40;2.70;;;;;;;;;;773059;178;631279;-77
2022/05/21 11:25:53;;;;;;;2.83;2.03;;;;;;;;;;770737;179;624430;-76
2022/05/21 11:28:29;;;;;;;4.57;2.80;;;;;;;;;;779391;180;643321;-74
2022/05/21 11:30:58;;;;;;;7.43;2.83;;;;;;;;;;771873;178;625837;-76
2022/05/21 11:38:29;;;;;;;3.13;2.63;;;;;;;;;;773672;181;618978;-74
2022/05/21 11:43:28;;;;;;;6.83;2.67;;;;;;;;;;771680;177;816222;-78
2022/05/21 11:45:59;;;;;;;4.67;2.17;;;;;;;;;;765644;179;920076;-78
2022/05/21 11:48:25;;;;;;;4.00;2.80;;;;;;;;;;768980;179;631237;-75
2022/05/21 11:50:57;;;;;;;5.20;2.27;;;;;;;;;;775216;180;632796;-74
2022/05/21 11:53:28;;;;;;;3.17;2.40;;;;;;;;;;769847;179;627095;-76
2022/05/21 11:55:55;;;;;;;4.00;2.43;;;;;;;;;;772077;180;713276;-75
2022/05/21 11:58:21;;;;;;;3.50;2.50;;;;;;;;;;771861;181;622795;-71
2022/05/21 12:00:49;;;;;;;4.87;2.50;;;;;;;;;;778536;178;626902;-75
2022/05/21 12:03:14;;;;;;;2.83;2.30;;;;;;;;;;778098;178;631227;-70
2022/05/21 12:05:56;;;;;;;4.93;2.40;;;;;;;;;;767440;183;625638;-76
2022/05/21 12:08:36;;;;;;;4.20;3.23;;;;;;;;;;773924;180;623413;-73
2022/05/21 12:11:14;;;;;;;3.10;2.60;;;;;;;;;;770910;177;902448;-76
2022/05/21 12:13:47;;;;;;;3.47;2.80;;;;;;;;;;773825;179;633507;-73
2022/05/21 12:16:29;;;;;;;3.50;2.40;;;;;;;;;;771689;181;619254;-71
2022/05/21 12:18:55;;;;;;;5.23;2.80;;;;;;;;;;771024;183;731657;-72
2022/05/21 12:21:26;;;;;;;4.30;2.40;;;;;;;;;;769670;177;628876;-72
2022/05/21 12:24:05;;;;;;;5.30;2.40;;;;;;;;;;772875;178;628610;-73
2022/05/21 12:26:30;;;;;;;4.60;2.30;;;;;;;;;;773479;177;643236;-70
2022/05/21 12:28:59;;;;;;;4.47;2.57;;;;;;;;;;770788;177;917416;-73
2022/05/21 12:31:25;;;;;;;4.50;2.37;;;;;;;;;;771731;181;646645;-71
2022/05/21 12:34:07;;;;;;;3.00;2.30;;;;;;;;;;768164;178;899266;-70
2022/05/21 12:36:32;;;;;;;2.70;2.27;;;;;;;;;;766123;181;815698;-71
2022/05/21 12:38:58;;;;;;;8.10;2.70;;;;;;;;;;764364;182;629770;-76
2022/05/21 12:41:24;;;;;;;4.57;2.87;;;;;;;;;;780276;177;635996;-73
2022/05/21 12:43:50;;;;;;;5.47;2.60;;;;;;;;;;768357;178;631337;-69
2022/05/21 12:46:17;;;;;;;3.13;2.40;;;;;;;;;;769966;178;640006;-76
2022/05/21 12:48:44;;;;;;;5.20;2.43;;;;;;;;;;767042;180;918380;-70
2022/05/21 12:51:10;;;;;;;6.30;2.50;;;;;;;;;;764605;182;924338;-71
2022/05/21 12:53:39;;;;;;;3.97;2.90;;;;;;;;;;780350;177;920771;-71
2022/05/21 12:56:11;;;;;;;3.83;2.47;;;;;;;;;;771510;177;920114;-74
2022/05/21 12:58:36;;;;;;;3.87;2.47;;;;;;;;;;771674;180;618789;-72
2022/05/21 13:01:02;;;;;;;5.63;2.70;;;;;;;;;;767019;181;711740;-74
2022/05/21 13:03:30;;;;;;;3.67;2.77;;;;;;;;;;774890;177;630177;-75
2022/05/21 13:05:55;;;;;;;3.25;2.12;;;;;;;;;;768916;179;912319;-70
2022/05/21 13:08:21;;;;;;;5.27;2.47;;;;;;;;;;776191;178;629028;-71
2022/05/21 13:10:54;;;;;;;7.87;3.00;;;;;;;;;;768525;180;624715;-72
2022/05/21 13:13:19;;;;;;;3.10;2.20;;;;;;;;;;773719;180;636814;-73
2022/05/21 13:15:45;;;;;;;7.33;2.17;;;;;;;;;;779109;177;640183;-72
2022/05/21 13:18:16;;;;;;;2.70;1.70;;;;;;;;;;770779;177;916686;-72
2022/05/21 13:20:45;;;;;;;3.20;2.37;;;;;;;;;;770633;180;1036338;-72
2022/05/21 13:23:15;;;;;;;4.57;2.07;;;;;;;;;;768169;179;916684;-72
2022/05/21 13:25:41;;;;;;;4.40;2.13;;;;;;;;;;773797;177;910608;-73
2022/05/21 13:28:14;;;;;;;6.17;2.27;;;;;;;;;;768449;181;643697;-73
2022/05/21 13:30:44;;;;;;;12.23;2.80;;;;;;;;;;758320;182;629304;-72
2022/05/21 13:33:13;;;;;;;7.83;2.27;;;;;;;;;;761737;182;921289;-73
2022/05/21 13:35:34;;;;;;;2.67;1.97;;;;;;;;;;778186;180;633887;-71
2022/05/21 13:38:00;;;;;;;2.30;1.67;;;;;;;;;;770585;179;671091;-74
2022/05/21 13:40:26;;;;;;;3.60;1.90;;;;;;;;;;771731;180;626867;-71
2022/05/21 13:42:53;;;;;;;4.40;1.90;;;;;;;;;;770851;177;817470;-70
2022/05/21 13:45:19;;;;;;;5.33;2.50;;;;;;;;;;773866;178;922387;-71
2022/05/21 13:47:46;;;;;;;4.60;2.07;;;;;;;;;;770967;177;636635;-70
2022/05/21 13:50:12;;;;;;;3.50;2.33;;;;;;;;;;770228;177;915617;-71
2022/05/21 13:52:38;;;;;;;3.73;1.90;;;;;;;;;;776180;179;613909;-76
2022/05/21 13:55:04;;;;;;;5.03;1.47;;;;;;;;;;772351;177;662490;-71
2022/05/21 13:57:31;;;;;;;5.70;1.73;;;;;;;;;;773583;177;912208;-74
2022/05/21 13:59:57;;;;;;;3.50;2.30;;;;;;;;;;770938;180;627070;-74
2022/05/21 14:02:28;;;;;;;2.90;2.30;;;;;;;;;;773928;179;619085;-74
2022/05/21 14:04:54;;;;;;;3.87;2.10;;;;;;;;;;773739;177;650693;-74
2022/05/21 14:07:34;;;;;;;4.47;1.70;;;;;;;;;;768995;177;637782;-73
2022/05/21 14:10:00;;;;;;;3.10;1.77;;;;;;;;;;770428;178;623755;-75
2022/05/21 14:12:28;;;;;;;2.70;1.53;;;;;;;;;;775428;178;632584;-72
2022/05/21 14:14:54;;;;;;;6.20;2.53;;;;;;;;;;768518;180;655546;-75
2022/05/21 14:17:21;;;;;;;10.20;1.90;;;;;;;;;;765956;178;916408;-70
2022/05/21 14:19:52;;;;;;;3.40;1.90;;;;;;;;;;770111;177;919555;-73
2022/05/21 14:22:18;;;;;;;3.80;1.70;;;;;;;;;;769926;180;943475;-73
2022/05/21 14:24:44;;;;;;;5.55;1.65;;;;;;;;;;767397;179;989554;-73
2022/05/21 14:27:24;;;;;;;4.87;1.63;;;;;;;;;;768557;178;633624;-75
2022/05/21 14:29:52;;;;;;;4.73;2.67;;;;;;;;;;769124;180;620287;-73
2022/05/21 14:32:24;;;;;;;6.13;1.93;;;;;;;;;;773678;178;705863;-71
2022/05/21 14:34:49;;;;;;;3.23;1.40;;;;;;;;;;775435;181;615377;-74
2022/05/21 14:37:20;;;;;;;4.57;1.70;;;;;;;;;;767836;181;919597;-73
2022/05/21 14:39:46;;;;;;;2.47;1.67;;;;;;;;;;769537;179;918470;-73
2022/05/21 14:42:12;;;;;;;6.93;1.90;;;;;;;;;;774199;177;919040;-74
2022/05/21 14:44:38;;;;;;;3.13;1.70;;;;;;;;;;771766;179;621874;-70
2022/05/21 14:49:35;;;;;;;5.53;1.83;;;;;;;;;;773376;179;628040;-72
2022/05/21 14:54:32;;;;;;;4.87;1.80;;;;;;;;;;772810;178;654321;-74
2022/05/21 14:56:58;;;;;;;3.43;1.30;;;;;;;;;;772207;179;681809;-75
2022/05/21 14:59:24;;;;;;;3.03;2.10;;;;;;;;;;773937;180;635863;-73
2022/05/21 15:01:51;;;;;;;5.37;1.47;;;;;;;;;;771418;178;633716;-72
2022/05/21 15:04:16;;;;;;;3.93;1.70;;;;;;;;;;769603;180;661226;-72
2022/05/21 15:06:41;;;;;;;2.87;1.60;;;;;;;;;;771412;177;623635;-71
2022/05/21 15:09:08;;;;;;;3.10;1.93;;;;;;;;;;775697;177;663845;-71
2022/05/21 15:11:33;;;;;;;5.60;1.60;;;;;;;;;;769771;178;628034;-72